KKLS/KLS METAR and TAF weather

Enter ICAO airport designator
Station Type Date Time Source
KKLS METAR 2022/06/27 17:56 UTC NOAA

KKLS 271756Z AUTO 00000KT 10SM CLR 24/15 A2996 RMK AO2 SLP149 T02440150 10244 20139 58013


Station Type Date Time Source
KKLS Decoded METAR 2022/06/27 17:56 UTC NOAA

Kelso, Kelso-Longview Airport, WA, United States (KKLS) 46-07N 122-54W
Jun 27, 2022 - 01:56 PM EDT / 2022.06.27 1756 UTC
Wind: Calm:0
Visibility: 10 mile(s):0
Sky conditions: clear
Temperature: 75.9 F (24.4 C)
Dew Point: 59.0 F (15.0 C)
Relative Humidity: 55%
Pressure (altimeter): 29.96 in. Hg (1014 hPa)
Pressure tendency: 0.04 inches (1.3 hPa) lower than three hours ago
ob: KKLS 271756Z AUTO 00000KT 10SM CLR 24/15 A2996 RMK AO2 SLP149 T02440150 10244 20139 58013
cycle: 18

Station Type Date Time Source
KKLS TAF UTC NOAA

Error!

Example: see airport list